Argos, Indiana
Current Conditions -  °F | °C
As of 7:35 AM on Sunday 21 Dec 2014 (Local Time) from KRCR Reporting Station
Haze Haze  
Wind Chill: 26°   Ceiling: 5000
Heat Index: 32°   Visibility: 5mi
Dew Point: 30°   Wind: 6mph
Humidity: 93%   Direction: 150°SSE
Pressure: 30.27"   Gusts: NA
Location:  41.23°N, 86.24°W
Report Text: KRCR 211235Z AUTO 15005KT 5SM BR OVC050 00/M01 A3027 RMK AO2
Loading
Personal Weather Stations






























Interactive Weather Map New forecast layout! Learn more

10-Day Weather Forecast

Advertisements
Track Severe Weather on mobile